Time;durP1;ratioP1;P1;durP2;ratioP2;P2;SDS_P1;SDS_P2;PMS_P1;PMS_P2;Temp;Humidity;BMP_temperature;BMP_pressure;BME280_temperature;BME280_humidity;BME280_pressure;Samples;Min_cycle;Max_cycle;Signal;HPM_P1;HPM_P2
2023/01/24 00:00:46;;;;;;;;;;;;;;;2.65;71.51;99496.13;4922571;29;19927;-75
2023/01/24 00:03:39;;;;;;;;;;;;;;;2.58;71.21;99506.13;4925834;29;20359;-75
2023/01/24 00:06:09;;;;;;;;;;;;;;;2.62;71.37;99501.97;4899136;29;19934;-75
2023/01/24 00:08:36;;;;;;;;;;;;;;;2.40;71.84;99512.25;4922995;29;19931;-75
2023/01/24 00:11:05;;;;;;;;;;;;;;;2.52;71.38;99507.00;4913702;29;19934;-75
2023/01/24 00:13:33;;;;;;;;;;;;;;;2.56;71.45;99517.06;4921112;29;19938;-75
2023/01/24 00:16:05;;;;;;;;;;;;;;;2.46;71.78;99518.59;4919416;29;19938;-75
2023/01/24 00:18:33;;;;;;;;;;;;;;;2.48;71.83;99519.19;4923787;29;20036;-75
2023/01/24 00:21:01;;;;;;;;;;;;;;;2.49;72.61;99520.84;4917775;29;19962;-75
2023/01/24 00:23:31;;;;;;;;;;;;;;;2.65;71.74;99516.78;4900361;29;19938;-75
2023/01/24 00:25:59;;;;;;;;;;;;;;;2.57;72.05;99516.03;4923305;29;20477;-75
2023/01/24 00:28:27;;;;;;;;;;;;;;;2.54;71.70;99524.50;4904776;29;19927;-78
2023/01/24 00:30:57;;;;;;;;;;;;;;;2.68;71.47;99516.34;4923194;29;19927;-78
2023/01/24 00:33:25;;;;;;;;;;;;;;;2.55;71.37;99523.47;4911976;29;19927;-78
2023/01/24 00:35:53;;;;;;;;;;;;;;;2.38;72.48;99530.41;4914838;29;19934;-78
2023/01/24 00:38:21;;;;;;;;;;;;;;;2.37;73.08;99520.72;4922171;29;20408;-75
2023/01/24 00:40:51;;;;;;;;;;;;;;;2.39;72.69;99528.56;4915447;29;19933;-75
2023/01/24 00:43:19;;;;;;;;;;;;;;;2.42;72.36;99528.94;4916119;29;19927;-78
2023/01/24 00:45:49;;;;;;;;;;;;;;;2.36;72.40;99532.50;4898726;29;19982;-78
2023/01/24 00:48:17;;;;;;;;;;;;;;;2.29;72.96;99529.03;4899969;29;19982;-77
2023/01/24 00:50:45;;;;;;;;;;;;;;;2.32;72.81;99525.94;4921945;29;19927;-80
2023/01/24 00:53:14;;;;;;;;;;;;;;;2.36;73.20;99530.66;4919846;29;19934;-78
2023/01/24 00:58:35;;;;;;;;;;;;;;;2.43;73.23;99538.63;4921915;29;19927;-76
2023/01/24 01:01:06;;;;;;;;;;;;;;;2.47;72.29;99537.16;4904982;29;20390;-76
2023/01/24 01:03:34;;;;;;;;;;;;;;;2.31;72.45;99540.38;4899128;29;19996;-76
2023/01/24 01:06:06;;;;;;;;;;;;;;;2.22;73.18;99541.69;4923164;29;19952;-75
2023/01/24 01:08:34;;;;;;;;;;;;;;;2.37;72.79;99528.78;4911632;29;19927;-76
2023/01/24 01:11:02;;;;;;;;;;;;;;;2.35;72.74;99534.38;4916797;29;19927;-75
2023/01/24 01:13:30;;;;;;;;;;;;;;;2.27;73.31;99533.81;4924242;29;19927;-78
2023/01/24 01:16:02;;;;;;;;;;;;;;;2.14;73.36;99536.59;4900186;29;20310;-79
2023/01/24 01:18:30;;;;;;;;;;;;;;;2.26;73.12;99535.66;4914015;29;19986;-75
2023/01/24 01:21:04;;;;;;;;;;;;;;;2.23;72.97;99546.00;4922657;29;19927;-74
2023/01/24 01:23:32;;;;;;;;;;;;;;;2.35;73.02;99539.75;4899383;29;19928;-76
2023/01/24 01:26:01;;;;;;;;;;;;;;;2.33;73.39;99540.97;4917824;29;19927;-76
2023/01/24 01:28:28;;;;;;;;;;;;;;;2.28;73.05;99538.94;4923797;29;19927;-76
2023/01/24 01:30:57;;;;;;;;;;;;;;;2.15;74.45;99548.97;4901095;29;20395;-76
2023/01/24 01:33:27;;;;;;;;;;;;;;;2.24;73.80;99553.03;4915668;29;19927;-75
2023/01/24 01:35:55;;;;;;;;;;;;;;;2.39;73.43;99553.50;4916380;29;19927;-75
2023/01/24 01:38:24;;;;;;;;;;;;;;;2.35;73.64;99550.47;4899328;29;19936;-76
2023/01/24 01:40:52;;;;;;;;;;;;;;;2.35;73.22;99555.00;4897201;29;19954;-76
2023/01/24 01:43:23;;;;;;;;;;;;;;;2.28;73.19;99549.66;4898505;29;20398;-75
2023/01/24 01:45:53;;;;;;;;;;;;;;;2.36;73.61;99562.00;4900486;29;20014;-76
2023/01/24 01:52:04;;;;;;;;;;;;;;;2.28;73.36;99570.31;4916914;29;19977;-76
2023/01/24 01:54:34;;;;;;;;;;;;;;;2.35;73.14;99571.91;4897828;29;20409;-76
2023/01/24 01:57:28;;;;;;;;;;;;;;;2.29;73.35;99571.94;4919366;29;19937;-77
2023/01/24 01:59:57;;;;;;;;;;;;;;;2.22;73.10;99576.53;4918977;29;19927;-77
2023/01/24 02:02:25;;;;;;;;;;;;;;;2.12;74.28;99577.00;4920276;29;19934;-73
2023/01/24 02:04:53;;;;;;;;;;;;;;;2.19;73.92;99571.63;4921993;29;19927;-73
2023/01/24 02:07:24;;;;;;;;;;;;;;;2.34;73.73;99564.06;4901984;29;19934;-76
2023/01/24 02:09:52;;;;;;;;;;;;;;;2.34;72.90;99562.25;4916638;29;19926;-77
2023/01/24 02:12:21;;;;;;;;;;;;;;;2.33;72.84;99557.88;4914200;29;19927;-78
2023/01/24 02:17:34;;;;;;;;;;;;;;;2.40;72.47;99562.38;4914288;29;20366;-78
2023/01/24 02:20:29;;;;;;;;;;;;;;;2.12;72.78;99568.97;4923044;29;19927;-75
2023/01/24 02:23:01;;;;;;;;;;;;;;;2.01;73.11;99567.78;4912652;29;20564;-75
2023/01/24 02:25:31;;;;;;;;;;;;;;;2.28;72.78;99573.00;4915058;29;19935;-75
2023/01/24 02:28:00;;;;;;;;;;;;;;;2.23;72.87;99568.28;4906611;29;20457;-75
2023/01/24 02:30:28;;;;;;;;;;;;;;;2.26;72.79;99564.34;4914749;29;20611;-74
2023/01/24 02:32:57;;;;;;;;;;;;;;;2.28;72.74;99560.41;4918120;29;19934;-74
2023/01/24 02:38:19;;;;;;;;;;;;;;;2.24;72.73;99551.16;4897586;29;19935;-72
2023/01/24 02:40:53;;;;;;;;;;;;;;;2.24;72.92;99561.06;4916929;29;20329;-78
2023/01/24 02:43:23;;;;;;;;;;;;;;;2.06;72.81;99573.31;4905709;29;19962;-78
2023/01/24 02:45:51;;;;;;;;;;;;;;;2.20;72.59;99578.63;4918917;29;19943;-75
2023/01/24 02:48:22;;;;;;;;;;;;;;;2.20;72.85;99576.75;4902694;29;19950;-75
2023/01/24 02:53:44;;;;;;;;;;;;;;;2.22;72.21;99577.34;4885464;29;20327;-78
2023/01/24 02:59:01;;;;;;;;;;;;;;;2.02;73.35;99592.72;4900155;29;20359;-78
2023/01/24 03:01:32;;;;;;;;;;;;;;;2.07;72.85;99588.38;4916533;29;20042;-72
2023/01/24 03:04:01;;;;;;;;;;;;;;;2.20;72.91;99579.44;4926456;29;19934;-72
2023/01/24 03:06:30;;;;;;;;;;;;;;;2.14;72.71;99590.22;4915668;29;19931;-78
2023/01/24 03:08:58;;;;;;;;;;;;;;;2.19;72.46;99577.00;4924591;29;19931;-78
2023/01/24 03:11:33;;;;;;;;;;;;;;;2.19;72.07;99585.03;4899547;29;19937;-73
2023/01/24 03:36:19;;;;;;;;;;;;;;;2.18;71.97;99580.69;4918147;29;20409;-75
2023/01/24 03:41:37;;;;;;;;;;;;;;;2.08;71.87;99579.31;4920865;29;19982;-75
2023/01/24 03:44:06;;;;;;;;;;;;;;;2.14;71.79;99583.00;4918684;29;19927;-75
2023/01/24 03:46:39;;;;;;;;;;;;;;;2.09;71.59;99586.31;4901863;29;19927;-75
2023/01/24 03:49:09;;;;;;;;;;;;;;;2.12;71.93;99579.69;4900685;29;19982;-75
2023/01/24 03:54:29;;;;;;;;;;;;;;;2.15;71.50;99575.78;4906454;29;19927;-78
2023/01/24 03:57:06;;;;;;;;;;;;;;;2.04;71.81;99586.13;4916469;29;20018;-72
2023/01/24 03:59:34;;;;;;;;;;;;;;;2.02;71.84;99579.34;4932040;29;19937;-73
2023/01/24 04:02:04;;;;;;;;;;;;;;;1.87;72.32;99582.31;4902374;29;20020;-78
2023/01/24 04:07:26;;;;;;;;;;;;;;;1.98;72.68;99587.00;4919970;29;19955;-79
2023/01/24 04:10:06;;;;;;;;;;;;;;;2.08;72.45;99582.00;4920770;29;19934;-79
2023/01/24 04:12:40;;;;;;;;;;;;;;;2.07;72.76;99576.81;4899649;29;19938;-79
2023/01/24 04:15:09;;;;;;;;;;;;;;;2.06;72.28;99576.00;4913286;29;19927;-78
2023/01/24 04:20:31;;;;;;;;;;;;;;;1.99;72.59;99572.56;4899108;29;19963;-73
2023/01/24 04:23:01;;;;;;;;;;;;;;;2.12;72.65;99565.47;4918708;29;20027;-73
2023/01/24 04:25:30;;;;;;;;;;;;;;;2.07;72.07;99563.41;4906572;29;19927;-73
2023/01/24 04:27:58;;;;;;;;;;;;;;;1.90;72.62;99555.06;4904181;29;19998;-73
2023/01/24 04:30:29;;;;;;;;;;;;;;;1.94;72.29;99558.16;4882650;29;20024;-75
2023/01/24 04:33:01;;;;;;;;;;;;;;;1.93;72.44;99553.84;4920640;29;19928;-75
2023/01/24 04:35:54;;;;;;;;;;;;;;;1.82;73.05;99550.78;4897674;29;20303;-75
2023/01/24 04:38:22;;;;;;;;;;;;;;;1.96;72.80;99548.84;4921536;29;19977;-75
2023/01/24 04:41:02;;;;;;;;;;;;;;;1.96;72.16;99556.06;4903211;29;20318;-75
2023/01/24 04:43:37;;;;;;;;;;;;;;;1.87;72.80;99555.53;4922532;29;19927;-75
2023/01/24 04:46:05;;;;;;;;;;;;;;;1.81;73.11;99548.31;4903523;29;19931;-77
2023/01/24 04:48:52;;;;;;;;;;;;;;;1.77;72.75;99544.44;4912359;29;19938;-78
2023/01/24 04:51:47;;;;;;;;;;;;;;;1.76;73.25;99550.84;4924936;29;19955;-77
2023/01/24 04:54:46;;;;;;;;;;;;;;;1.80;72.97;99558.22;4918883;29;19927;-78
2023/01/24 04:57:38;;;;;;;;;;;;;;;1.73;74.03;99559.28;4917343;29;19963;-77
2023/01/24 05:00:09;;;;;;;;;;;;;;;1.64;73.83;99568.59;4920788;29;19950;-77
2023/01/24 05:02:38;;;;;;;;;;;;;;;1.88;73.45;99565.19;4906155;29;19927;-77
2023/01/24 05:05:09;;;;;;;;;;;;;;;1.87;73.07;99568.09;4925238;29;19935;-78
2023/01/24 05:07:37;;;;;;;;;;;;;;;1.96;73.35;99572.97;4906038;29;19975;-77
2023/01/24 05:10:12;;;;;;;;;;;;;;;1.92;73.49;99570.94;4918792;29;20021;-75
2023/01/24 05:12:40;;;;;;;;;;;;;;;2.07;72.38;99572.28;4923366;29;19963;-78
2023/01/24 05:15:15;;;;;;;;;;;;;;;2.15;72.39;99570.41;4902490;29;19959;-75
2023/01/24 05:21:08;;;;;;;;;;;;;;;2.13;72.52;99565.28;4911745;29;19935;-79
2023/01/24 05:23:36;;;;;;;;;;;;;;;1.90;73.26;99563.13;4902622;29;19934;-78
2023/01/24 05:26:06;;;;;;;;;;;;;;;2.16;71.83;99566.69;4917069;29;19931;-75
2023/01/24 05:28:34;;;;;;;;;;;;;;;2.17;72.11;99565.63;4897429;29;19931;-75
2023/01/24 05:31:03;;;;;;;;;;;;;;;1.97;71.78;99566.59;4921888;29;19935;-78
2023/01/24 05:33:33;;;;;;;;;;;;;;;2.07;72.19;99572.28;4904090;29;20410;-79
2023/01/24 05:36:01;;;;;;;;;;;;;;;2.23;71.94;99580.84;4921609;29;19938;-78
2023/01/24 05:38:35;;;;;;;;;;;;;;;2.17;71.41;99577.19;4920254;29;19938;-78
2023/01/24 05:41:04;;;;;;;;;;;;;;;2.15;71.16;99576.59;4916325;29;20424;-74
2023/01/24 05:43:34;;;;;;;;;;;;;;;2.10;71.60;99571.88;4916376;29;20443;-79
2023/01/24 05:46:03;;;;;;;;;;;;;;;2.27;70.92;99574.03;4908408;29;19934;-74
2023/01/24 05:48:36;;;;;;;;;;;;;;;2.34;70.69;99569.44;4912591;29;19927;-80
2023/01/24 05:51:33;;;;;;;;;;;;;;;2.18;71.06;99586.88;4906566;29;19926;-76
2023/01/24 05:54:04;;;;;;;;;;;;;;;2.00;71.78;99584.91;4927150;29;19927;-77
2023/01/24 05:56:51;;;;;;;;;;;;;;;2.03;71.53;99589.03;4906896;29;19953;-74
2023/01/24 05:59:44;;;;;;;;;;;;;;;2.14;71.76;99593.72;4914727;29;19959;-72
2023/01/24 06:02:12;;;;;;;;;;;;;;;2.29;71.16;99598.75;4890381;29;20023;-74
2023/01/24 06:04:40;;;;;;;;;;;;;;;2.15;71.75;99594.53;4897847;29;19931;-73
2023/01/24 06:07:08;;;;;;;;;;;;;;;2.27;71.13;99603.53;4904197;29;20294;-76
2023/01/24 06:09:41;;;;;;;;;;;;;;;2.22;71.48;99611.41;4896990;29;19934;-73
2023/01/24 06:12:09;;;;;;;;;;;;;;;2.19;71.42;99609.16;4899600;29;20006;-77
2023/01/24 06:14:41;;;;;;;;;;;;;;;2.14;71.76;99612.47;4914029;29;20299;-76
2023/01/24 06:17:09;;;;;;;;;;;;;;;2.27;71.30;99607.03;4892207;29;19927;-76
2023/01/24 06:19:37;;;;;;;;;;;;;;;2.16;71.68;99607.72;4921432;29;19927;-74
2023/01/24 06:22:09;;;;;;;;;;;;;;;2.17;71.89;99612.03;4905130;29;19927;-78
2023/01/24 06:24:38;;;;;;;;;;;;;;;2.21;71.83;99617.81;4914587;29;19927;-77
2023/01/24 06:27:23;;;;;;;;;;;;;;;2.22;71.32;99630.16;4896980;29;19938;-74
2023/01/24 06:29:51;;;;;;;;;;;;;;;2.46;70.69;99631.28;4916472;29;19931;-73
2023/01/24 06:32:22;;;;;;;;;;;;;;;2.27;71.24;99644.56;4918479;29;19934;-73
2023/01/24 06:35:15;;;;;;;;;;;;;;;2.28;71.73;99632.81;4915849;29;19934;-73
2023/01/24 06:37:45;;;;;;;;;;;;;;;2.13;71.73;99639.50;4915737;29;19931;-74
2023/01/24 06:40:14;;;;;;;;;;;;;;;2.34;71.63;99639.16;4914029;29;19938;-72
2023/01/24 06:42:44;;;;;;;;;;;;;;;2.34;71.86;99641.84;4912910;29;19967;-76
2023/01/24 06:45:12;;;;;;;;;;;;;;;2.26;72.20;99636.75;4909375;29;20375;-76
2023/01/24 06:47:40;;;;;;;;;;;;;;;2.17;71.79;99646.91;4905565;29;19927;-75
2023/01/24 06:53:03;;;;;;;;;;;;;;;2.50;70.91;99641.34;4914109;29;19927;-75
2023/01/24 06:55:56;;;;;;;;;;;;;;;2.28;71.95;99640.84;4912215;29;20012;-80
2023/01/24 06:58:25;;;;;;;;;;;;;;;2.39;71.20;99647.38;4914319;29;19978;-80
2023/01/24 07:00:54;;;;;;;;;;;;;;;2.29;72.00;99645.19;4916940;29;19927;-79
2023/01/24 07:03:22;;;;;;;;;;;;;;;2.44;71.78;99644.06;4900350;29;19927;-79
2023/01/24 07:05:50;;;;;;;;;;;;;;;2.51;71.78;99644.88;4915515;29;19933;-78
2023/01/24 07:08:20;;;;;;;;;;;;;;;2.53;71.03;99656.19;4916463;29;19934;-77
2023/01/24 07:10:49;;;;;;;;;;;;;;;2.58;70.88;99651.00;4915724;29;19932;-78
2023/01/24 07:13:17;;;;;;;;;;;;;;;2.60;70.92;99654.28;4914923;29;19931;-78
2023/01/24 07:15:46;;;;;;;;;;;;;;;2.68;70.35;99654.03;4906132;29;20351;-73
2023/01/24 07:21:06;;;;;;;;;;;;;;;2.49;71.54;99652.28;4915114;29;20014;-75
2023/01/24 07:23:35;;;;;;;;;;;;;;;2.62;70.58;99661.09;4913982;29;19935;-75
2023/01/24 07:26:04;;;;;;;;;;;;;;;2.47;71.15;99663.25;4914922;29;20000;-77
2023/01/24 07:28:32;;;;;;;;;;;;;;;2.54;71.35;99665.88;4914084;29;20378;-78
2023/01/24 07:31:01;;;;;;;;;;;;;;;2.52;70.77;99666.09;4915225;29;19931;-74
2023/01/24 07:33:29;;;;;;;;;;;;;;;2.59;71.39;99658.00;4912913;29;19931;-75
2023/01/24 07:35:57;;;;;;;;;;;;;;;2.75;71.02;99659.34;4923428;28;19911;-82
2023/01/24 07:41:21;;;;;;;;;;;;;;;2.65;70.41;99672.41;5025512;23;19926;-71
2023/01/24 07:43:53;;;;;;;;;;;;;;;2.71;70.84;99672.38;4928582;29;19977;-74
2023/01/24 07:46:29;;;;;;;;;;;;;;;2.66;71.08;99679.41;4942845;29;19926;-81
2023/01/24 07:49:22;;;;;;;;;;;;;;;2.69;70.62;99679.00;4924990;28;19927;-80
2023/01/24 07:51:56;;;;;;;;;;;;;;;2.76;70.72;99685.13;4941453;29;19970;-77
2023/01/24 07:54:48;;;;;;;;;;;;;;;2.58;70.70;99693.94;4960760;28;19927;-80
2023/01/24 07:57:18;;;;;;;;;;;;;;;2.68;70.98;99690.78;4929718;28;19934;-71
2023/01/24 07:59:46;;;;;;;;;;;;;;;2.66;71.42;99696.34;4948030;28;19934;-74
2023/01/24 08:02:16;;;;;;;;;;;;;;;2.67;70.22;99694.50;4946569;28;19973;-79
2023/01/24 08:04:43;;;;;;;;;;;;;;;2.51;71.56;99693.16;4936769;29;19934;-79
2023/01/24 08:07:17;;;;;;;;;;;;;;;2.53;71.83;99697.25;4942492;28;20369;-74
2023/01/24 08:09:45;;;;;;;;;;;;;;;2.51;71.25;99699.34;4962182;28;19930;-74
2023/01/24 08:12:14;;;;;;;;;;;;;;;2.53;71.45;99697.25;4924135;29;19926;-75
2023/01/24 08:14:42;;;;;;;;;;;;;;;2.58;71.08;99701.97;4922969;29;19933;-75
2023/01/24 08:17:09;;;;;;;;;;;;;;;2.54;71.42;99698.91;4942925;28;19933;-73
2023/01/24 08:19:41;;;;;;;;;;;;;;;2.54;71.68;99711.50;4944114;29;19934;-74
2023/01/24 08:25:24;;;;;;;;;;;;;;;2.67;71.16;99708.75;4951698;28;19933;-79
2023/01/24 08:27:53;;;;;;;;;;;;;;;2.60;71.77;99719.50;4964885;29;19994;-79
2023/01/24 08:30:21;;;;;;;;;;;;;;;2.56;71.32;99712.94;4959414;28;19927;-76
2023/01/24 08:32:49;;;;;;;;;;;;;;;2.60;71.93;99719.50;4942290;28;19927;-76
2023/01/24 08:35:19;;;;;;;;;;;;;;;2.78;71.04;99731.38;4939809;29;20015;-76
2023/01/24 08:37:48;;;;;;;;;;;;;;;2.87;70.54;99728.19;4949817;29;19926;-76
2023/01/24 08:40:16;;;;;;;;;;;;;;;3.00;69.93;99713.88;4931310;29;19937;-76
2023/01/24 08:42:44;;;;;;;;;;;;;;;2.89;70.00;99725.31;4964426;28;19930;-77
2023/01/24 08:45:12;;;;;;;;;;;;;;;2.86;70.26;99733.81;4937422;29;19926;-77
2023/01/24 08:47:41;;;;;;;;;;;;;;;2.99;70.41;99731.03;4967288;28;19927;-79
2023/01/24 08:50:10;;;;;;;;;;;;;;;3.14;69.39;99736.94;4966948;28;19997;-79
2023/01/24 08:52:40;;;;;;;;;;;;;;;2.69;71.07;99732.69;4938808;29;20009;-79
2023/01/24 08:55:08;;;;;;;;;;;;;;;2.83;70.74;99739.63;4963847;28;19933;-79
2023/01/24 08:57:37;;;;;;;;;;;;;;;2.88;70.28;99745.16;4967763;28;19934;-79
2023/01/24 09:00:06;;;;;;;;;;;;;;;2.53;70.95;99740.19;4955600;28;20531;-79
2023/01/24 09:02:36;;;;;;;;;;;;;;;2.70;70.80;99740.50;4961759;28;20001;-79
2023/01/24 09:05:05;;;;;;;;;;;;;;;2.72;71.39;99737.63;4937527;29;19931;-79
2023/01/24 09:07:34;;;;;;;;;;;;;;;2.63;71.63;99737.88;4941023;29;20021;-81
2023/01/24 09:10:03;;;;;;;;;;;;;;;2.86;70.50;99744.53;4946268;28;19926;-79
2023/01/24 09:12:31;;;;;;;;;;;;;;;2.80;71.06;99740.03;4951819;29;19933;-74
2023/01/24 09:14:59;;;;;;;;;;;;;;;2.98;70.30;99742.78;4947670;29;19934;-75
2023/01/24 09:17:28;;;;;;;;;;;;;;;3.00;69.93;99746.09;4943005;29;19933;-78
2023/01/24 09:19:58;;;;;;;;;;;;;;;3.11;70.27;99748.09;4951060;28;20382;-77
2023/01/24 09:25:22;;;;;;;;;;;;;;;3.11;70.50;99742.72;4958152;28;19977;-74
2023/01/24 09:27:53;;;;;;;;;;;;;;;3.11;69.33;99748.09;4949719;28;19927;-73
2023/01/24 09:30:21;;;;;;;;;;;;;;;2.83;70.56;99745.00;4945629;28;20303;-76
2023/01/24 09:32:50;;;;;;;;;;;;;;;3.02;70.25;99748.56;4929730;29;19926;-77
2023/01/24 09:35:18;;;;;;;;;;;;;;;2.71;70.58;99742.13;4941214;29;20390;-76
2023/01/24 09:37:47;;;;;;;;;;;;;;;2.87;70.77;99744.31;4940027;29;20402;-76
2023/01/24 09:40:18;;;;;;;;;;;;;;;2.88;70.75;99745.97;4944024;29;19934;-72
2023/01/24 09:42:49;;;;;;;;;;;;;;;3.14;70.35;99747.66;4943338;28;19934;-72
2023/01/24 09:45:19;;;;;;;;;;;;;;;3.17;69.51;99749.06;4945541;28;19931;-76
2023/01/24 09:47:49;;;;;;;;;;;;;;;2.85;70.73;99737.53;4950495;28;19989;-76
2023/01/24 09:50:18;;;;;;;;;;;;;;;3.11;70.32;99747.28;4952122;28;19926;-76
2023/01/24 09:55:41;;;;;;;;;;;;;;;3.21;69.56;99746.78;5887911;23;19932;-78
2023/01/24 09:58:18;;;;;;;;;;;;;;;3.26;69.66;99745.09;4936097;29;20393;-77
2023/01/24 10:00:46;;;;;;;;;;;;;;;3.34;69.20;99742.13;4954550;28;19969;-74
2023/01/24 10:03:18;;;;;;;;;;;;;;;3.26;69.57;99744.28;4953042;28;19974;-73
2023/01/24 10:05:47;;;;;;;;;;;;;;;3.19;69.96;99749.66;4962297;28;19941;-74
2023/01/24 10:08:18;;;;;;;;;;;;;;;3.32;69.61;99746.91;4937149;28;19927;-73
2023/01/24 10:16:56;;;;;;;;;;;;;;;3.18;70.25;99744.53;5391446;23;20302;-73
2023/01/24 10:19:29;;;;;;;;;;;;;;;3.22;69.62;99743.06;4894840;29;19938;-73
2023/01/24 10:22:01;;;;;;;;;;;;;;;3.22;70.06;99740.38;4913105;29;19934;-74
2023/01/24 10:24:31;;;;;;;;;;;;;;;3.43;69.36;99750.75;4912759;29;19935;-74
2023/01/24 10:26:59;;;;;;;;;;;;;;;3.25;69.46;99742.59;4908696;29;20299;-78
2023/01/24 10:29:28;;;;;;;;;;;;;;;3.18;69.07;99742.66;4917339;29;19927;-78
2023/01/24 10:31:57;;;;;;;;;;;;;;;3.19;69.06;99749.66;4907879;29;19979;-76
2023/01/24 10:34:28;;;;;;;;;;;;;;;3.00;70.47;99745.28;4906661;29;19928;-76
2023/01/24 10:42:48;;;;;;;;;;;;;;;2.99;70.45;99733.72;5823901;23;21094;-80
2023/01/24 11:06:36;;;;;;;;;;;;;;;3.53;69.22;99726.88;5398794;23;19930;-74
2023/01/24 11:09:05;;;;;;;;;;;;;;;3.55;68.91;99727.47;4901252;29;19991;-74
2023/01/24 11:11:33;;;;;;;;;;;;;;;3.88;68.07;99727.13;4896942;29;19931;-78
2023/01/24 11:14:01;;;;;;;;;;;;;;;3.75;68.48;99721.09;4912222;29;19934;-77
2023/01/24 11:16:30;;;;;;;;;;;;;;;3.73;68.95;99724.00;4907975;29;19935;-78
2023/01/24 11:19:01;;;;;;;;;;;;;;;3.85;68.82;99726.78;4925853;29;19928;-78
2023/01/24 11:21:32;;;;;;;;;;;;;;;3.91;68.17;99728.56;4917273;29;19934;-78
2023/01/24 11:24:00;;;;;;;;;;;;;;;3.68;68.05;99711.22;4900818;29;19928;-77
2023/01/24 11:26:29;;;;;;;;;;;;;;;3.64;68.24;99717.28;4901680;29;19927;-74
2023/01/24 11:28:58;;;;;;;;;;;;;;;3.47;69.10;99708.13;4912712;29;19927;-74
2023/01/24 11:31:30;;;;;;;;;;;;;;;3.80;68.25;99713.19;4913369;29;20499;-77
2023/01/24 11:34:03;;;;;;;;;;;;;;;3.81;68.61;99707.56;4910151;29;19928;-77
2023/01/24 11:36:40;;;;;;;;;;;;;;;3.88;67.97;99699.44;4914042;29;19934;-77
2023/01/24 11:39:12;;;;;;;;;;;;;;;3.53;68.55;99701.88;4907759;29;20018;-77
2023/01/24 11:41:43;;;;;;;;;;;;;;;3.50;69.16;99697.75;4916319;29;19927;-74
2023/01/24 11:44:33;;;;;;;;;;;;;;;3.54;69.01;99693.59;4897006;29;19935;-74
2023/01/24 11:47:26;;;;;;;;;;;;;;;3.57;69.62;99686.94;4905017;29;19928;-80
2023/01/24 11:50:06;;;;;;;;;;;;;;;3.63;69.33;99692.25;4906162;29;19975;-79
2023/01/24 11:52:46;;;;;;;;;;;;;;;3.70;68.42;99694.88;4906837;29;19939;-79
2023/01/24 11:55:23;;;;;;;;;;;;;;;3.72;67.71;99679.34;4918559;29;20086;-77
2023/01/24 11:58:19;;;;;;;;;;;;;;;3.56;69.11;99691.47;4925930;29;19930;-80
2023/01/24 12:00:52;;;;;;;;;;;;;;;3.43;69.10;99686.25;4918474;29;20045;-79
2023/01/24 12:03:28;;;;;;;;;;;;;;;3.59;69.47;99688.38;4920617;29;19931;-77
2023/01/24 12:05:59;;;;;;;;;;;;;;;3.77;69.08;99676.78;4924974;29;20422;-75
2023/01/24 12:08:37;;;;;;;;;;;;;;;3.82;68.77;99673.44;4913565;29;19928;-73
2023/01/24 12:11:05;;;;;;;;;;;;;;;3.74;68.76;99671.06;4926616;28;19923;-82
2023/01/24 12:16:45;;;;;;;;;;;;;;;3.72;68.72;99673.97;5149975;23;19927;-75
2023/01/24 12:19:22;;;;;;;;;;;;;;;3.58;68.73;99684.03;4936017;29;19919;-80
2023/01/24 12:21:56;;;;;;;;;;;;;;;3.73;68.79;99680.16;4923535;29;19939;-84
2023/01/24 12:24:43;;;;;;;;;;;;;;;3.41;68.76;99686.47;4942942;29;19934;-82
2023/01/24 12:27:27;;;;;;;;;;;;;;;3.45;68.98;99683.34;4903115;29;20017;-74
2023/01/24 12:29:56;;;;;;;;;;;;;;;3.39;69.73;99685.03;4900341;29;19966;-74
2023/01/24 12:32:26;;;;;;;;;;;;;;;3.47;69.51;99684.78;4920149;29;19933;-79
2023/01/24 12:34:59;;;;;;;;;;;;;;;3.59;69.53;99680.31;4905928;29;19931;-80
2023/01/24 12:37:32;;;;;;;;;;;;;;;3.60;69.42;99681.94;4914590;29;19950;-77
2023/01/24 12:40:02;;;;;;;;;;;;;;;3.63;68.72;99684.19;4911467;29;19975;-77
2023/01/24 12:42:38;;;;;;;;;;;;;;;3.59;69.10;99688.38;4908823;29;20015;-76
2023/01/24 12:45:07;;;;;;;;;;;;;;;3.54;69.14;99687.38;4913974;29;20014;-76
2023/01/24 12:47:36;;;;;;;;;;;;;;;3.56;69.13;99682.59;4899703;29;20088;-77
2023/01/24 12:50:12;;;;;;;;;;;;;;;3.70;68.68;99691.38;4905203;29;19978;-77
2023/01/24 12:52:43;;;;;;;;;;;;;;;3.49;69.39;99685.38;4913721;29;19934;-77
2023/01/24 12:55:13;;;;;;;;;;;;;;;3.43;70.12;99680.88;4919260;29;19927;-77
2023/01/24 12:58:05;;;;;;;;;;;;;;;3.55;69.30;99684.47;4934480;29;19938;-77
2023/01/24 13:00:37;;;;;;;;;;;;;;;3.65;69.17;99676.72;4934721;29;20382;-79
2023/01/24 13:03:22;;;;;;;;;;;;;;;3.51;69.47;99688.63;4922504;29;19942;-79
2023/01/24 13:05:53;;;;;;;;;;;;;;;3.70;68.56;99672.56;4900276;29;19979;-73
2023/01/24 13:08:29;;;;;;;;;;;;;;;3.75;69.57;99683.47;4915253;29;20026;-76
2023/01/24 13:11:01;;;;;;;;;;;;;;;3.77;68.03;99684.03;4917148;29;19927;-77
2023/01/24 13:13:29;;;;;;;;;;;;;;;3.40;69.15;99684.00;4907767;29;19922;-82
2023/01/24 13:16:03;;;;;;;;;;;;;;;3.47;69.54;99692.84;4918889;29;19958;-77
2023/01/24 13:18:41;;;;;;;;;;;;;;;3.32;69.20;99686.97;4913036;29;19973;-77
2023/01/24 13:21:11;;;;;;;;;;;;;;;3.49;69.61;99700.66;4909541;29;19950;-76
2023/01/24 13:23:54;;;;;;;;;;;;;;;3.57;69.47;99693.16;4898075;29;19994;-75
2023/01/24 13:26:38;;;;;;;;;;;;;;;3.21;70.31;99693.06;4894902;29;19927;-77
2023/01/24 13:32:09;;;;;;;;;;;;;;;3.28;69.99;99696.50;4908621;29;20459;-78
2023/01/24 13:34:44;;;;;;;;;;;;;;;3.30;70.28;99699.78;4899290;29;19915;-79
2023/01/24 13:37:42;;;;;;;;;;;;;;;3.18;71.20;99699.69;4920363;29;19956;-81
2023/01/24 13:40:21;;;;;;;;;;;;;;;3.37;70.63;99700.56;4897871;29;19927;-78
2023/01/24 13:42:53;;;;;;;;;;;;;;;3.44;70.35;99697.81;4901756;29;19974;-77
2023/01/24 13:45:41;;;;;;;;;;;;;;;3.35;70.35;99695.41;4901769;29;19928;-77
2023/01/24 13:48:24;;;;;;;;;;;;;;;3.29;70.10;99700.84;4907039;29;20014;-77
2023/01/24 13:51:07;;;;;;;;;;;;;;;3.61;69.33;99696.19;4902357;29;19939;-78
2023/01/24 13:57:20;;;;;;;;;;;;;;;3.56;69.62;99693.34;4910228;29;19934;-79
2023/01/24 14:00:10;;;;;;;;;;;;;;;3.47;70.12;99690.16;4907537;29;19936;-79
2023/01/24 14:02:43;;;;;;;;;;;;;;;3.37;70.03;99689.81;4897912;29;19928;-78
2023/01/24 14:05:45;;;;;;;;;;;;;;;3.53;69.42;99685.75;4908102;29;19927;-79
2023/01/24 14:08:15;;;;;;;;;;;;;;;3.44;70.13;99681.69;4908742;29;19942;-80
2023/01/24 14:10:46;;;;;;;;;;;;;;;3.61;69.89;99680.88;4910173;29;20140;-76
2023/01/24 14:13:29;;;;;;;;;;;;;;;3.75;68.71;99680.78;4895582;29;19932;-76
2023/01/24 14:15:57;;;;;;;;;;;;;;;3.60;69.55;99687.31;4895148;29;20411;-78
2023/01/24 14:18:50;;;;;;;;;;;;;;;3.45;70.09;99683.34;4899533;29;20286;-79
2023/01/24 14:21:20;;;;;;;;;;;;;;;3.33;70.15;99689.44;4894738;29;19935;-76
2023/01/24 14:23:50;;;;;;;;;;;;;;;3.55;69.42;99684.47;4897801;29;19931;-75
2023/01/24 14:26:18;;;;;;;;;;;;;;;3.42;69.46;99684.63;4900819;29;19934;-79
2023/01/24 14:28:49;;;;;;;;;;;;;;;3.55;69.21;99681.78;4904051;29;19938;-79
2023/01/24 14:31:20;;;;;;;;;;;;;;;3.31;69.94;99683.47;4901675;29;19931;-76
2023/01/24 14:33:50;;;;;;;;;;;;;;;3.27;70.98;99682.25;4898668;29;19932;-76
2023/01/24 14:36:24;;;;;;;;;;;;;;;3.47;70.32;99689.34;4905156;29;19927;-81
2023/01/24 14:39:11;;;;;;;;;;;;;;;3.55;69.41;99683.66;4913775;29;19939;-80
2023/01/24 14:42:05;;;;;;;;;;;;;;;3.37;70.15;99681.78;4904541;29;19935;-79
2023/01/24 14:44:34;;;;;;;;;;;;;;;3.26;70.33;99691.38;4919897;29;19956;-80
2023/01/24 14:47:27;;;;;;;;;;;;;;;3.19;70.65;99692.44;4931116;29;19931;-79
2023/01/24 14:49:57;;;;;;;;;;;;;;;3.27;70.22;99686.81;4906732;29;19927;-73
2023/01/24 14:52:27;;;;;;;;;;;;;;;3.26;70.72;99696.75;4897886;29;20307;-77
2023/01/24 14:55:00;;;;;;;;;;;;;;;3.09;70.54;99692.94;4901369;29;19935;-76
2023/01/24 14:57:29;;;;;;;;;;;;;;;3.20;70.71;99686.06;4890481;29;19931;-77
2023/01/24 15:00:01;;;;;;;;;;;;;;;3.26;70.70;99690.56;4905093;29;19984;-77
2023/01/24 15:02:29;;;;;;;;;;;;;;;3.37;70.13;99687.13;4900400;29;19938;-76
2023/01/24 15:04:57;;;;;;;;;;;;;;;3.22;70.86;99692.03;4899229;29;19935;-77
2023/01/24 15:07:27;;;;;;;;;;;;;;;3.25;70.27;99697.78;4910614;29;19928;-77
2023/01/24 15:12:48;;;;;;;;;;;;;;;3.13;71.11;99700.34;4906260;29;19967;-78
2023/01/24 15:15:16;;;;;;;;;;;;;;;3.15;70.71;99703.66;4886327;29;20336;-78
2023/01/24 15:17:51;;;;;;;;;;;;;;;3.22;70.59;99700.09;4904086;29;19943;-79
2023/01/24 15:20:23;;;;;;;;;;;;;;;3.28;70.17;99694.66;4903761;29;19936;-79
2023/01/24 15:22:56;;;;;;;;;;;;;;;3.20;70.91;99699.50;4914811;29;19934;-79